sensor_id;sensor_type;location;lat;lon;timestamp;P1;durP1;ratioP1;P2;durP2;ratioP2
26502;SDS011;14177;51.520;6.764;2023-05-10T00:01:14;8.70;;;6.43;;
26502;SDS011;14177;51.520;6.764;2023-05-10T00:03:41;8.70;;;5.75;;
26502;SDS011;14177;51.520;6.764;2023-05-10T00:06:08;8.85;;;5.93;;
26502;SDS011;14177;51.520;6.764;2023-05-10T00:08:35;7.35;;;4.97;;
26502;SDS011;14177;51.520;6.764;2023-05-10T00:11:02;8.55;;;5.80;;
26502;SDS011;14177;51.520;6.764;2023-05-10T00:13:29;9.00;;;5.28;;
26502;SDS011;14177;51.520;6.764;2023-05-10T00:15:56;9.88;;;6.35;;
26502;SDS011;14177;51.520;6.764;2023-05-10T00:18:23;10.95;;;6.72;;
26502;SDS011;14177;51.520;6.764;2023-05-10T00:20:50;10.52;;;6.90;;
26502;SDS011;14177;51.520;6.764;2023-05-10T00:23:17;9.05;;;6.53;;
26502;SDS011;14177;51.520;6.764;2023-05-10T00:25:44;12.10;;;7.10;;
26502;SDS011;14177;51.520;6.764;2023-05-10T00:28:11;11.27;;;6.93;;
26502;SDS011;14177;51.520;6.764;2023-05-10T00:30:38;12.00;;;6.78;;
26502;SDS011;14177;51.520;6.764;2023-05-10T00:33:05;12.48;;;7.60;;
26502;SDS011;14177;51.520;6.764;2023-05-10T00:35:32;12.02;;;7.07;;
26502;SDS011;14177;51.520;6.764;2023-05-10T00:37:59;9.82;;;6.43;;
26502;SDS011;14177;51.520;6.764;2023-05-10T00:40:26;12.65;;;8.25;;
26502;SDS011;14177;51.520;6.764;2023-05-10T00:42:57;9.70;;;7.20;;
26502;SDS011;14177;51.520;6.764;2023-05-10T00:45:25;12.20;;;7.80;;
26502;SDS011;14177;51.520;6.764;2023-05-10T00:47:53;14.15;;;7.90;;
26502;SDS011;14177;51.520;6.764;2023-05-10T00:50:22;12.98;;;8.55;;
26502;SDS011;14177;51.520;6.764;2023-05-10T00:52:49;14.07;;;8.68;;
26502;SDS011;14177;51.520;6.764;2023-05-10T00:55:16;16.02;;;8.32;;
26502;SDS011;14177;51.520;6.764;2023-05-10T00:57:45;13.27;;;8.48;;
26502;SDS011;14177;51.520;6.764;2023-05-10T01:00:14;14.02;;;8.85;;
26502;SDS011;14177;51.520;6.764;2023-05-10T01:02:44;15.32;;;8.60;;
26502;SDS011;14177;51.520;6.764;2023-05-10T01:05:12;14.63;;;9.32;;
26502;SDS011;14177;51.520;6.764;2023-05-10T01:07:39;13.90;;;8.60;;
26502;SDS011;14177;51.520;6.764;2023-05-10T01:10:08;15.48;;;8.40;;
26502;SDS011;14177;51.520;6.764;2023-05-10T01:12:37;13.57;;;9.02;;
26502;SDS011;14177;51.520;6.764;2023-05-10T01:15:07;13.70;;;9.07;;
26502;SDS011;14177;51.520;6.764;2023-05-10T01:17:37;13.90;;;8.88;;
26502;SDS011;14177;51.520;6.764;2023-05-10T01:20:09;18.90;;;9.07;;
26502;SDS011;14177;51.520;6.764;2023-05-10T01:22:56;14.80;;;8.98;;
26502;SDS011;14177;51.520;6.764;2023-05-10T01:26:07;13.25;;;8.20;;
26502;SDS011;14177;51.520;6.764;2023-05-10T01:31:30;15.43;;;9.35;;
26502;SDS011;14177;51.520;6.764;2023-05-10T01:34:35;14.77;;;8.90;;
26502;SDS011;14177;51.520;6.764;2023-05-10T01:37:19;12.73;;;8.30;;
26502;SDS011;14177;51.520;6.764;2023-05-10T01:39:58;13.23;;;8.60;;
26502;SDS011;14177;51.520;6.764;2023-05-10T01:42:46;12.88;;;8.38;;
26502;SDS011;14177;51.520;6.764;2023-05-10T01:45:37;11.77;;;7.90;;
26502;SDS011;14177;51.520;6.764;2023-05-10T01:48:15;13.73;;;8.18;;
26502;SDS011;14177;51.520;6.764;2023-05-10T01:50:45;17.75;;;7.95;;
26502;SDS011;14177;51.520;6.764;2023-05-10T01:53:16;13.65;;;8.50;;
26502;SDS011;14177;51.520;6.764;2023-05-10T01:55:47;16.75;;;8.50;;
26502;SDS011;14177;51.520;6.764;2023-05-10T01:58:28;13.43;;;8.57;;
26502;SDS011;14177;51.520;6.764;2023-05-10T02:01:00;15.38;;;9.23;;
26502;SDS011;14177;51.520;6.764;2023-05-10T02:03:31;17.23;;;9.00;;
26502;SDS011;14177;51.520;6.764;2023-05-10T02:06:02;15.02;;;9.48;;
26502;SDS011;14177;51.520;6.764;2023-05-10T02:08:31;14.68;;;9.23;;
26502;SDS011;14177;51.520;6.764;2023-05-10T02:11:02;15.25;;;9.10;;
26502;SDS011;14177;51.520;6.764;2023-05-10T02:13:32;14.90;;;9.52;;
26502;SDS011;14177;51.520;6.764;2023-05-10T02:16:02;16.60;;;9.27;;
26502;SDS011;14177;51.520;6.764;2023-05-10T02:18:31;16.02;;;9.70;;
26502;SDS011;14177;51.520;6.764;2023-05-10T02:21:01;13.60;;;9.10;;
26502;SDS011;14177;51.520;6.764;2023-05-10T02:23:29;17.25;;;9.70;;
26502;SDS011;14177;51.520;6.764;2023-05-10T02:25:58;14.52;;;9.23;;
26502;SDS011;14177;51.520;6.764;2023-05-10T02:28:28;17.63;;;9.07;;
26502;SDS011;14177;51.520;6.764;2023-05-10T02:30:58;16.88;;;9.85;;
26502;SDS011;14177;51.520;6.764;2023-05-10T02:33:26;18.10;;;9.82;;
26502;SDS011;14177;51.520;6.764;2023-05-10T02:35:55;16.98;;;9.63;;
26502;SDS011;14177;51.520;6.764;2023-05-10T02:38:23;17.92;;;9.27;;
26502;SDS011;14177;51.520;6.764;2023-05-10T02:40:52;19.88;;;9.95;;
26502;SDS011;14177;51.520;6.764;2023-05-10T02:43:21;17.83;;;10.25;;
26502;SDS011;14177;51.520;6.764;2023-05-10T02:45:50;16.50;;;10.27;;
26502;SDS011;14177;51.520;6.764;2023-05-10T02:48:17;15.95;;;10.02;;
26502;SDS011;14177;51.520;6.764;2023-05-10T02:50:45;15.93;;;10.02;;
26502;SDS011;14177;51.520;6.764;2023-05-10T02:53:22;17.27;;;9.95;;
26502;SDS011;14177;51.520;6.764;2023-05-10T02:55:57;18.48;;;9.85;;
26502;SDS011;14177;51.520;6.764;2023-05-10T02:58:27;19.35;;;10.02;;
26502;SDS011;14177;51.520;6.764;2023-05-10T03:00:54;15.00;;;10.02;;
26502;SDS011;14177;51.520;6.764;2023-05-10T03:03:21;18.42;;;10.98;;
26502;SDS011;14177;51.520;6.764;2023-05-10T03:05:49;15.82;;;9.80;;
26502;SDS011;14177;51.520;6.764;2023-05-10T03:08:16;18.73;;;11.20;;
26502;SDS011;14177;51.520;6.764;2023-05-10T03:11:09;19.17;;;11.73;;
26502;SDS011;14177;51.520;6.764;2023-05-10T03:17:06;19.67;;;11.27;;
26502;SDS011;14177;51.520;6.764;2023-05-10T03:19:48;19.23;;;11.35;;
26502;SDS011;14177;51.520;6.764;2023-05-10T03:25:25;19.27;;;10.73;;
26502;SDS011;14177;51.520;6.764;2023-05-10T03:27:53;19.60;;;10.98;;
26502;SDS011;14177;51.520;6.764;2023-05-10T03:30:24;17.80;;;10.90;;
26502;SDS011;14177;51.520;6.764;2023-05-10T03:32:51;20.77;;;11.48;;
26502;SDS011;14177;51.520;6.764;2023-05-10T03:35:19;18.80;;;11.20;;
26502;SDS011;14177;51.520;6.764;2023-05-10T03:37:46;18.52;;;11.23;;
26502;SDS011;14177;51.520;6.764;2023-05-10T03:40:13;21.88;;;11.88;;
26502;SDS011;14177;51.520;6.764;2023-05-10T03:42:42;21.48;;;11.68;;
26502;SDS011;14177;51.520;6.764;2023-05-10T03:45:10;22.88;;;12.77;;
26502;SDS011;14177;51.520;6.764;2023-05-10T03:47:37;23.48;;;12.15;;
26502;SDS011;14177;51.520;6.764;2023-05-10T03:50:04;25.65;;;13.05;;
26502;SDS011;14177;51.520;6.764;2023-05-10T03:52:32;22.25;;;11.75;;
26502;SDS011;14177;51.520;6.764;2023-05-10T03:54:59;24.58;;;12.80;;
26502;SDS011;14177;51.520;6.764;2023-05-10T03:57:26;25.63;;;13.35;;
26502;SDS011;14177;51.520;6.764;2023-05-10T03:59:53;24.10;;;13.45;;
26502;SDS011;14177;51.520;6.764;2023-05-10T04:02:20;23.08;;;12.98;;
26502;SDS011;14177;51.520;6.764;2023-05-10T04:04:47;21.63;;;13.75;;
26502;SDS011;14177;51.520;6.764;2023-05-10T04:07:14;23.58;;;12.57;;
26502;SDS011;14177;51.520;6.764;2023-05-10T04:09:41;24.25;;;13.63;;
26502;SDS011;14177;51.520;6.764;2023-05-10T04:12:08;26.85;;;13.90;;
26502;SDS011;14177;51.520;6.764;2023-05-10T04:14:36;23.27;;;13.98;;
26502;SDS011;14177;51.520;6.764;2023-05-10T04:17:03;27.95;;;14.20;;
26502;SDS011;14177;51.520;6.764;2023-05-10T04:19:30;32.75;;;14.80;;
26502;SDS011;14177;51.520;6.764;2023-05-10T04:21:58;25.55;;;15.38;;
26502;SDS011;14177;51.520;6.764;2023-05-10T04:24:25;27.05;;;14.88;;
26502;SDS011;14177;51.520;6.764;2023-05-10T04:26:53;29.50;;;15.70;;
26502;SDS011;14177;51.520;6.764;2023-05-10T04:29:23;27.88;;;14.48;;
26502;SDS011;14177;51.520;6.764;2023-05-10T04:31:50;28.63;;;14.88;;
26502;SDS011;14177;51.520;6.764;2023-05-10T04:34:17;26.17;;;14.73;;
26502;SDS011;14177;51.520;6.764;2023-05-10T04:36:44;28.17;;;15.07;;
26502;SDS011;14177;51.520;6.764;2023-05-10T04:39:11;25.30;;;14.10;;
26502;SDS011;14177;51.520;6.764;2023-05-10T04:41:39;28.90;;;14.90;;
26502;SDS011;14177;51.520;6.764;2023-05-10T04:44:06;27.83;;;14.60;;
26502;SDS011;14177;51.520;6.764;2023-05-10T04:46:33;27.23;;;15.30;;
26502;SDS011;14177;51.520;6.764;2023-05-10T04:49:00;29.38;;;15.55;;
26502;SDS011;14177;51.520;6.764;2023-05-10T04:51:27;26.27;;;14.68;;
26502;SDS011;14177;51.520;6.764;2023-05-10T04:53:54;34.15;;;15.82;;
26502;SDS011;14177;51.520;6.764;2023-05-10T04:56:31;29.42;;;14.90;;
26502;SDS011;14177;51.520;6.764;2023-05-10T04:58:58;28.38;;;15.70;;
26502;SDS011;14177;51.520;6.764;2023-05-10T05:01:25;28.70;;;15.15;;
26502;SDS011;14177;51.520;6.764;2023-05-10T05:03:52;28.33;;;15.50;;
26502;SDS011;14177;51.520;6.764;2023-05-10T05:06:19;28.40;;;15.68;;
26502;SDS011;14177;51.520;6.764;2023-05-10T05:08:51;31.10;;;17.17;;
26502;SDS011;14177;51.520;6.764;2023-05-10T05:11:18;27.55;;;15.82;;
26502;SDS011;14177;51.520;6.764;2023-05-10T05:13:45;30.60;;;16.15;;
26502;SDS011;14177;51.520;6.764;2023-05-10T05:16:12;30.10;;;16.88;;
26502;SDS011;14177;51.520;6.764;2023-05-10T05:18:39;28.83;;;16.83;;
26502;SDS011;14177;51.520;6.764;2023-05-10T05:21:13;31.17;;;17.13;;
26502;SDS011;14177;51.520;6.764;2023-05-10T05:23:43;29.83;;;16.90;;
26502;SDS011;14177;51.520;6.764;2023-05-10T05:26:10;30.27;;;17.45;;
26502;SDS011;14177;51.520;6.764;2023-05-10T05:28:37;35.40;;;16.75;;
26502;SDS011;14177;51.520;6.764;2023-05-10T05:31:05;31.70;;;17.65;;
26502;SDS011;14177;51.520;6.764;2023-05-10T05:33:35;34.28;;;18.23;;
26502;SDS011;14177;51.520;6.764;2023-05-10T05:36:03;33.65;;;18.30;;
26502;SDS011;14177;51.520;6.764;2023-05-10T05:38:31;33.65;;;18.10;;
26502;SDS011;14177;51.520;6.764;2023-05-10T05:40:58;32.63;;;18.17;;
26502;SDS011;14177;51.520;6.764;2023-05-10T05:43:25;31.33;;;17.75;;
26502;SDS011;14177;51.520;6.764;2023-05-10T05:45:52;29.40;;;17.95;;
26502;SDS011;14177;51.520;6.764;2023-05-10T05:48:20;37.28;;;18.38;;
26502;SDS011;14177;51.520;6.764;2023-05-10T05:50:47;32.83;;;17.83;;
26502;SDS011;14177;51.520;6.764;2023-05-10T05:53:14;32.80;;;17.73;;
26502;SDS011;14177;51.520;6.764;2023-05-10T05:56:00;31.00;;;18.67;;
26502;SDS011;14177;51.520;6.764;2023-05-10T05:58:27;38.65;;;19.60;;
26502;SDS011;14177;51.520;6.764;2023-05-10T06:00:54;32.65;;;18.17;;
26502;SDS011;14177;51.520;6.764;2023-05-10T06:03:21;34.65;;;19.38;;
26502;SDS011;14177;51.520;6.764;2023-05-10T06:05:48;38.90;;;19.65;;
26502;SDS011;14177;51.520;6.764;2023-05-10T06:08:15;38.50;;;19.33;;
26502;SDS011;14177;51.520;6.764;2023-05-10T06:10:42;38.85;;;18.83;;
26502;SDS011;14177;51.520;6.764;2023-05-10T06:13:10;36.60;;;19.80;;
26502;SDS011;14177;51.520;6.764;2023-05-10T06:15:37;37.47;;;19.50;;
26502;SDS011;14177;51.520;6.764;2023-05-10T06:18:04;35.33;;;19.50;;
26502;SDS011;14177;51.520;6.764;2023-05-10T06:20:32;36.75;;;20.25;;
26502;SDS011;14177;51.520;6.764;2023-05-10T06:22:59;34.38;;;20.05;;
26502;SDS011;14177;51.520;6.764;2023-05-10T06:25:26;39.50;;;20.30;;
26502;SDS011;14177;51.520;6.764;2023-05-10T06:27:53;39.30;;;21.50;;
26502;SDS011;14177;51.520;6.764;2023-05-10T06:30:24;42.90;;;20.52;;
26502;SDS011;14177;51.520;6.764;2023-05-10T06:32:55;39.97;;;20.67;;
26502;SDS011;14177;51.520;6.764;2023-05-10T06:35:22;37.90;;;21.48;;
26502;SDS011;14177;51.520;6.764;2023-05-10T06:37:49;39.53;;;20.23;;
26502;SDS011;14177;51.520;6.764;2023-05-10T06:40:17;42.28;;;20.83;;
26502;SDS011;14177;51.520;6.764;2023-05-10T06:42:45;42.03;;;20.80;;
26502;SDS011;14177;51.520;6.764;2023-05-10T06:45:13;47.00;;;21.98;;
26502;SDS011;14177;51.520;6.764;2023-05-10T06:47:42;37.47;;;20.48;;
26502;SDS011;14177;51.520;6.764;2023-05-10T06:50:10;38.10;;;20.92;;
26502;SDS011;14177;51.520;6.764;2023-05-10T06:52:40;46.05;;;21.95;;
26502;SDS011;14177;51.520;6.764;2023-05-10T06:55:07;42.90;;;21.05;;
26502;SDS011;14177;51.520;6.764;2023-05-10T06:57:35;43.22;;;22.33;;
26502;SDS011;14177;51.520;6.764;2023-05-10T07:00:02;44.72;;;22.13;;
26502;SDS011;14177;51.520;6.764;2023-05-10T07:02:33;49.22;;;22.05;;
26502;SDS011;14177;51.520;6.764;2023-05-10T07:05:00;43.15;;;21.70;;
26502;SDS011;14177;51.520;6.764;2023-05-10T07:07:28;44.88;;;22.23;;
26502;SDS011;14177;51.520;6.764;2023-05-10T07:09:56;43.58;;;22.00;;
26502;SDS011;14177;51.520;6.764;2023-05-10T07:12:24;43.92;;;21.33;;
26502;SDS011;14177;51.520;6.764;2023-05-10T07:14:51;42.35;;;21.38;;
26502;SDS011;14177;51.520;6.764;2023-05-10T07:17:18;45.53;;;22.55;;
26502;SDS011;14177;51.520;6.764;2023-05-10T07:19:45;44.05;;;22.73;;
26502;SDS011;14177;51.520;6.764;2023-05-10T07:22:12;55.38;;;22.58;;
26502;SDS011;14177;51.520;6.764;2023-05-10T07:24:39;43.15;;;21.85;;
26502;SDS011;14177;51.520;6.764;2023-05-10T07:27:07;43.95;;;21.58;;
26502;SDS011;14177;51.520;6.764;2023-05-10T07:29:34;47.22;;;21.75;;
26502;SDS011;14177;51.520;6.764;2023-05-10T07:32:02;44.63;;;22.98;;
26502;SDS011;14177;51.520;6.764;2023-05-10T07:34:29;48.53;;;21.02;;
26502;SDS011;14177;51.520;6.764;2023-05-10T07:37:00;44.22;;;20.75;;
26502;SDS011;14177;51.520;6.764;2023-05-10T07:39:27;42.40;;;20.20;;
26502;SDS011;14177;51.520;6.764;2023-05-10T07:41:54;39.70;;;19.80;;
26502;SDS011;14177;51.520;6.764;2023-05-10T07:44:22;41.53;;;19.88;;
26502;SDS011;14177;51.520;6.764;2023-05-10T07:46:49;34.95;;;17.85;;
26502;SDS011;14177;51.520;6.764;2023-05-10T07:49:16;33.00;;;16.88;;
26502;SDS011;14177;51.520;6.764;2023-05-10T07:51:43;37.28;;;18.17;;
26502;SDS011;14177;51.520;6.764;2023-05-10T07:54:10;37.45;;;17.80;;
26502;SDS011;14177;51.520;6.764;2023-05-10T07:56:38;37.33;;;18.38;;
26502;SDS011;14177;51.520;6.764;2023-05-10T07:59:14;42.38;;;19.50;;
26502;SDS011;14177;51.520;6.764;2023-05-10T08:01:43;37.78;;;17.38;;
26502;SDS011;14177;51.520;6.764;2023-05-10T08:04:10;37.42;;;17.92;;
26502;SDS011;14177;51.520;6.764;2023-05-10T08:06:38;39.03;;;18.25;;
26502;SDS011;14177;51.520;6.764;2023-05-10T08:09:06;35.13;;;18.40;;
26502;SDS011;14177;51.520;6.764;2023-05-10T08:11:34;36.78;;;17.80;;
26502;SDS011;14177;51.520;6.764;2023-05-10T08:14:02;35.15;;;17.70;;
26502;SDS011;14177;51.520;6.764;2023-05-10T08:16:29;43.00;;;18.38;;
26502;SDS011;14177;51.520;6.764;2023-05-10T08:18:56;44.25;;;18.20;;
26502;SDS011;14177;51.520;6.764;2023-05-10T08:21:23;42.03;;;19.38;;
26502;SDS011;14177;51.520;6.764;2023-05-10T08:23:50;35.80;;;19.10;;
26502;SDS011;14177;51.520;6.764;2023-05-10T08:26:17;42.33;;;19.15;;
26502;SDS011;14177;51.520;6.764;2023-05-10T08:28:44;45.88;;;19.90;;
26502;SDS011;14177;51.520;6.764;2023-05-10T08:31:11;30.63;;;15.50;;
26502;SDS011;14177;51.520;6.764;2023-05-10T08:33:38;31.15;;;14.05;;
26502;SDS011;14177;51.520;6.764;2023-05-10T08:36:07;29.42;;;13.98;;
26502;SDS011;14177;51.520;6.764;2023-05-10T08:38:34;27.10;;;13.80;;
26502;SDS011;14177;51.520;6.764;2023-05-10T08:41:01;27.27;;;14.50;;
26502;SDS011;14177;51.520;6.764;2023-05-10T08:43:30;30.20;;;14.57;;
26502;SDS011;14177;51.520;6.764;2023-05-10T08:45:59;28.13;;;14.90;;
26502;SDS011;14177;51.520;6.764;2023-05-10T08:48:30;31.60;;;15.35;;
26502;SDS011;14177;51.520;6.764;2023-05-10T08:51:00;28.17;;;14.90;;
26502;SDS011;14177;51.520;6.764;2023-05-10T08:53:30;27.52;;;15.15;;
26502;SDS011;14177;51.520;6.764;2023-05-10T08:56:01;30.30;;;14.90;;
26502;SDS011;14177;51.520;6.764;2023-05-10T08:58:29;29.27;;;15.45;;
26502;SDS011;14177;51.520;6.764;2023-05-10T09:00:57;26.80;;;13.93;;
26502;SDS011;14177;51.520;6.764;2023-05-10T09:03:25;30.70;;;14.48;;
26502;SDS011;14177;51.520;6.764;2023-05-10T09:05:52;27.23;;;14.02;;
26502;SDS011;14177;51.520;6.764;2023-05-10T09:08:22;27.77;;;14.00;;
26502;SDS011;14177;51.520;6.764;2023-05-10T09:10:54;32.72;;;14.50;;
26502;SDS011;14177;51.520;6.764;2023-05-10T09:13:22;31.70;;;15.32;;
26502;SDS011;14177;51.520;6.764;2023-05-10T09:15:51;28.88;;;14.68;;
26502;SDS011;14177;51.520;6.764;2023-05-10T09:18:19;29.98;;;14.75;;
26502;SDS011;14177;51.520;6.764;2023-05-10T09:20:46;31.17;;;15.15;;
26502;SDS011;14177;51.520;6.764;2023-05-10T09:23:15;25.55;;;13.85;;
26502;SDS011;14177;51.520;6.764;2023-05-10T09:25:42;28.58;;;13.98;;
26502;SDS011;14177;51.520;6.764;2023-05-10T09:28:09;25.70;;;13.77;;
26502;SDS011;14177;51.520;6.764;2023-05-10T09:30:37;27.60;;;14.20;;
26502;SDS011;14177;51.520;6.764;2023-05-10T09:33:05;24.08;;;12.75;;
26502;SDS011;14177;51.520;6.764;2023-05-10T09:35:32;23.55;;;12.48;;
26502;SDS011;14177;51.520;6.764;2023-05-10T09:38:01;24.00;;;12.05;;
26502;SDS011;14177;51.520;6.764;2023-05-10T09:40:31;24.35;;;11.55;;
26502;SDS011;14177;51.520;6.764;2023-05-10T09:43:02;23.27;;;10.93;;
26502;SDS011;14177;51.520;6.764;2023-05-10T09:45:33;24.70;;;10.85;;
26502;SDS011;14177;51.520;6.764;2023-05-10T09:48:04;20.15;;;10.98;;
26502;SDS011;14177;51.520;6.764;2023-05-10T09:50:33;23.27;;;11.98;;
26502;SDS011;14177;51.520;6.764;2023-05-10T09:53:01;22.05;;;10.90;;
26502;SDS011;14177;51.520;6.764;2023-05-10T09:55:40;21.55;;;10.48;;
26502;SDS011;14177;51.520;6.764;2023-05-10T09:58:13;20.90;;;11.35;;
26502;SDS011;14177;51.520;6.764;2023-05-10T10:00:41;25.73;;;12.57;;
26502;SDS011;14177;51.520;6.764;2023-05-10T10:03:13;21.27;;;12.15;;
26502;SDS011;14177;51.520;6.764;2023-05-10T10:05:43;27.80;;;13.07;;
26502;SDS011;14177;51.520;6.764;2023-05-10T10:08:12;28.48;;;13.38;;
26502;SDS011;14177;51.520;6.764;2023-05-10T10:10:41;24.48;;;12.40;;
26502;SDS011;14177;51.520;6.764;2023-05-10T10:13:11;26.67;;;12.77;;
26502;SDS011;14177;51.520;6.764;2023-05-10T10:15:39;20.73;;;11.63;;
26502;SDS011;14177;51.520;6.764;2023-05-10T10:18:06;21.92;;;12.27;;
26502;SDS011;14177;51.520;6.764;2023-05-10T10:20:35;24.45;;;11.93;;
26502;SDS011;14177;51.520;6.764;2023-05-10T10:23:03;22.17;;;12.13;;
26502;SDS011;14177;51.520;6.764;2023-05-10T10:25:30;23.02;;;12.02;;
26502;SDS011;14177;51.520;6.764;2023-05-10T10:28:01;20.40;;;11.45;;
26502;SDS011;14177;51.520;6.764;2023-05-10T10:30:53;26.10;;;13.43;;
26502;SDS011;14177;51.520;6.764;2023-05-10T10:36:18;25.08;;;11.93;;
26502;SDS011;14177;51.520;6.764;2023-05-10T10:49:49;20.98;;;11.20;;
26502;SDS011;14177;51.520;6.764;2023-05-10T10:55:09;18.30;;;10.43;;
26502;SDS011;14177;51.520;6.764;2023-05-10T11:02:53;19.85;;;11.88;;
26502;SDS011;14177;51.520;6.764;2023-05-10T11:05:47;22.80;;;11.90;;
26502;SDS011;14177;51.520;6.764;2023-05-10T11:08:31;19.52;;;11.32;;
26502;SDS011;14177;51.520;6.764;2023-05-10T11:11:04;23.67;;;11.63;;
26502;SDS011;14177;51.520;6.764;2023-05-10T11:13:34;19.88;;;10.93;;
26502;SDS011;14177;51.520;6.764;2023-05-10T11:18:59;24.85;;;13.27;;
26502;SDS011;14177;51.520;6.764;2023-05-10T11:22:11;24.40;;;13.85;;
26502;SDS011;14177;51.520;6.764;2023-05-10T11:24:39;21.63;;;12.63;;
26502;SDS011;14177;51.520;6.764;2023-05-10T11:27:22;22.58;;;13.10;;
26502;SDS011;14177;51.520;6.764;2023-05-10T11:29:52;25.40;;;13.05;;
26502;SDS011;14177;51.520;6.764;2023-05-10T11:32:19;23.20;;;13.52;;
26502;SDS011;14177;51.520;6.764;2023-05-10T11:34:47;20.95;;;13.00;;
26502;SDS011;14177;51.520;6.764;2023-05-10T11:37:14;22.17;;;13.15;;
26502;SDS011;14177;51.520;6.764;2023-05-10T11:39:45;21.92;;;12.52;;
26502;SDS011;14177;51.520;6.764;2023-05-10T11:42:13;23.70;;;13.05;;
26502;SDS011;14177;51.520;6.764;2023-05-10T11:44:40;24.55;;;13.13;;
26502;SDS011;14177;51.520;6.764;2023-05-10T11:47:09;23.05;;;12.88;;
26502;SDS011;14177;51.520;6.764;2023-05-10T11:49:38;19.65;;;12.93;;
26502;SDS011;14177;51.520;6.764;2023-05-10T11:52:08;18.05;;;11.20;;
26502;SDS011;14177;51.520;6.764;2023-05-10T11:54:37;18.55;;;11.35;;
26502;SDS011;14177;51.520;6.764;2023-05-10T11:57:04;16.85;;;10.27;;
26502;SDS011;14177;51.520;6.764;2023-05-10T11:59:31;16.55;;;10.07;;
26502;SDS011;14177;51.520;6.764;2023-05-10T12:01:58;14.50;;;9.45;;
26502;SDS011;14177;51.520;6.764;2023-05-10T12:04:25;16.10;;;8.18;;
26502;SDS011;14177;51.520;6.764;2023-05-10T12:06:55;12.80;;;8.05;;
26502;SDS011;14177;51.520;6.764;2023-05-10T12:09:22;11.07;;;7.65;;
26502;SDS011;14177;51.520;6.764;2023-05-10T12:11:55;13.05;;;8.02;;
26502;SDS011;14177;51.520;6.764;2023-05-10T12:14:25;11.63;;;6.70;;
26502;SDS011;14177;51.520;6.764;2023-05-10T12:16:52;14.00;;;7.00;;
26502;SDS011;14177;51.520;6.764;2023-05-10T12:19:19;10.02;;;5.40;;
26502;SDS011;14177;51.520;6.764;2023-05-10T12:21:47;10.48;;;5.47;;
26502;SDS011;14177;51.520;6.764;2023-05-10T12:24:14;9.18;;;5.85;;
26502;SDS011;14177;51.520;6.764;2023-05-10T12:26:45;9.27;;;5.55;;
26502;SDS011;14177;51.520;6.764;2023-05-10T12:29:13;10.95;;;5.20;;
26502;SDS011;14177;51.520;6.764;2023-05-10T12:34:32;8.20;;;4.90;;
26502;SDS011;14177;51.520;6.764;2023-05-10T12:37:02;9.43;;;4.80;;
26502;SDS011;14177;51.520;6.764;2023-05-10T12:39:43;9.65;;;5.82;;
26502;SDS011;14177;51.520;6.764;2023-05-10T12:42:12;11.35;;;5.18;;
26502;SDS011;14177;51.520;6.764;2023-05-10T12:44:39;7.28;;;4.82;;
26502;SDS011;14177;51.520;6.764;2023-05-10T12:47:06;10.60;;;5.15;;
26502;SDS011;14177;51.520;6.764;2023-05-10T12:49:33;8.65;;;4.38;;
26502;SDS011;14177;51.520;6.764;2023-05-10T12:52:00;7.22;;;4.72;;
26502;SDS011;14177;51.520;6.764;2023-05-10T12:54:27;8.10;;;4.82;;
26502;SDS011;14177;51.520;6.764;2023-05-10T12:56:54;9.43;;;4.65;;
26502;SDS011;14177;51.520;6.764;2023-05-10T12:59:22;7.68;;;4.88;;
26502;SDS011;14177;51.520;6.764;2023-05-10T13:01:49;15.55;;;4.80;;
26502;SDS011;14177;51.520;6.764;2023-05-10T13:04:16;7.72;;;4.07;;
26502;SDS011;14177;51.520;6.764;2023-05-10T13:06:43;9.02;;;4.90;;
26502;SDS011;14177;51.520;6.764;2023-05-10T13:09:10;7.80;;;5.43;;
26502;SDS011;14177;51.520;6.764;2023-05-10T13:11:37;7.68;;;4.72;;
26502;SDS011;14177;51.520;6.764;2023-05-10T13:14:04;8.45;;;5.05;;
26502;SDS011;14177;51.520;6.764;2023-05-10T13:16:31;8.13;;;5.03;;
26502;SDS011;14177;51.520;6.764;2023-05-10T13:18:58;8.77;;;4.88;;
26502;SDS011;14177;51.520;6.764;2023-05-10T13:21:26;11.27;;;5.20;;
26502;SDS011;14177;51.520;6.764;2023-05-10T13:23:53;8.40;;;4.65;;
26502;SDS011;14177;51.520;6.764;2023-05-10T13:26:20;9.05;;;4.80;;
26502;SDS011;14177;51.520;6.764;2023-05-10T13:28:49;7.40;;;4.30;;
26502;SDS011;14177;51.520;6.764;2023-05-10T13:31:18;6.32;;;4.40;;
26502;SDS011;14177;51.520;6.764;2023-05-10T13:33:44;8.43;;;4.72;;
26502;SDS011;14177;51.520;6.764;2023-05-10T13:36:11;9.77;;;4.82;;
26502;SDS011;14177;51.520;6.764;2023-05-10T13:38:38;8.15;;;4.63;;
26502;SDS011;14177;51.520;6.764;2023-05-10T13:41:06;7.30;;;4.20;;
26502;SDS011;14177;51.520;6.764;2023-05-10T13:43:33;10.70;;;4.18;;
26502;SDS011;14177;51.520;6.764;2023-05-10T13:46:01;12.55;;;3.97;;
26502;SDS011;14177;51.520;6.764;2023-05-10T13:48:29;9.35;;;4.18;;
26502;SDS011;14177;51.520;6.764;2023-05-10T13:50:55;6.40;;;3.40;;
26502;SDS011;14177;51.520;6.764;2023-05-10T13:53:22;7.57;;;4.05;;
26502;SDS011;14177;51.520;6.764;2023-05-10T13:55:49;8.52;;;4.10;;
26502;SDS011;14177;51.520;6.764;2023-05-10T13:58:16;6.22;;;3.97;;
26502;SDS011;14177;51.520;6.764;2023-05-10T14:00:43;5.95;;;4.13;;
26502;SDS011;14177;51.520;6.764;2023-05-10T14:03:10;5.70;;;3.45;;
26502;SDS011;14177;51.520;6.764;2023-05-10T14:05:37;7.97;;;3.60;;
26502;SDS011;14177;51.520;6.764;2023-05-10T14:08:04;5.95;;;3.92;;
26502;SDS011;14177;51.520;6.764;2023-05-10T14:10:31;8.48;;;4.45;;
26502;SDS011;14177;51.520;6.764;2023-05-10T14:12:58;7.70;;;4.53;;
26502;SDS011;14177;51.520;6.764;2023-05-10T14:15:25;7.03;;;4.22;;
26502;SDS011;14177;51.520;6.764;2023-05-10T14:17:52;6.88;;;4.28;;
26502;SDS011;14177;51.520;6.764;2023-05-10T14:20:19;6.32;;;4.05;;
26502;SDS011;14177;51.520;6.764;2023-05-10T14:22:46;5.43;;;3.90;;
26502;SDS011;14177;51.520;6.764;2023-05-10T14:25:13;7.35;;;3.67;;
26502;SDS011;14177;51.520;6.764;2023-05-10T14:27:41;9.10;;;4.57;;
26502;SDS011;14177;51.520;6.764;2023-05-10T14:30:08;6.68;;;4.40;;
26502;SDS011;14177;51.520;6.764;2023-05-10T14:32:36;6.63;;;4.57;;
26502;SDS011;14177;51.520;6.764;2023-05-10T14:35:03;7.30;;;5.10;;
26502;SDS011;14177;51.520;6.764;2023-05-10T14:37:32;6.00;;;4.50;;
26502;SDS011;14177;51.520;6.764;2023-05-10T14:39:59;5.95;;;4.72;;
26502;SDS011;14177;51.520;6.764;2023-05-10T14:42:26;10.43;;;4.93;;
26502;SDS011;14177;51.520;6.764;2023-05-10T14:44:54;8.73;;;5.25;;
26502;SDS011;14177;51.520;6.764;2023-05-10T14:47:21;6.63;;;4.38;;
26502;SDS011;14177;51.520;6.764;2023-05-10T14:49:48;6.38;;;4.38;;
26502;SDS011;14177;51.520;6.764;2023-05-10T14:52:16;8.00;;;5.10;;
26502;SDS011;14177;51.520;6.764;2023-05-10T14:54:43;5.72;;;4.72;;
26502;SDS011;14177;51.520;6.764;2023-05-10T14:57:10;10.98;;;5.40;;
26502;SDS011;14177;51.520;6.764;2023-05-10T14:59:37;7.15;;;5.20;;
26502;SDS011;14177;51.520;6.764;2023-05-10T15:02:05;10.48;;;5.50;;
26502;SDS011;14177;51.520;6.764;2023-05-10T15:04:34;8.45;;;5.60;;
26502;SDS011;14177;51.520;6.764;2023-05-10T15:07:02;12.27;;;6.43;;
26502;SDS011;14177;51.520;6.764;2023-05-10T15:09:29;8.73;;;5.93;;
26502;SDS011;14177;51.520;6.764;2023-05-10T15:11:56;7.88;;;6.50;;
26502;SDS011;14177;51.520;6.764;2023-05-10T15:14:23;10.52;;;6.47;;
26502;SDS011;14177;51.520;6.764;2023-05-10T15:16:50;9.88;;;6.60;;